sensor_id;sensor_type;location;lat;lon;timestamp;P1;durP1;ratioP1;P2;durP2;ratioP2
8317;SDS011;4196;48.926;8.964;2024-01-25T00:00:38;10.37;;;3.20;;
8317;SDS011;4196;48.926;8.964;2024-01-25T00:03:25;10.73;;;3.40;;
8317;SDS011;4196;48.926;8.964;2024-01-25T00:06:12;11.73;;;2.57;;
8317;SDS011;4196;48.926;8.964;2024-01-25T00:08:58;20.70;;;3.40;;
8317;SDS011;4196;48.926;8.964;2024-01-25T00:11:45;11.53;;;2.33;;
8317;SDS011;4196;48.926;8.964;2024-01-25T00:14:31;5.33;;;2.20;;
8317;SDS011;4196;48.926;8.964;2024-01-25T00:17:18;9.50;;;2.20;;
8317;SDS011;4196;48.926;8.964;2024-01-25T00:20:04;13.30;;;2.60;;
8317;SDS011;4196;48.926;8.964;2024-01-25T00:22:52;13.80;;;3.10;;
8317;SDS011;4196;48.926;8.964;2024-01-25T00:25:38;10.87;;;3.27;;
8317;SDS011;4196;48.926;8.964;2024-01-25T00:28:25;14.83;;;4.33;;
8317;SDS011;4196;48.926;8.964;2024-01-25T00:31:12;9.10;;;2.67;;
8317;SDS011;4196;48.926;8.964;2024-01-25T00:33:59;10.00;;;3.10;;
8317;SDS011;4196;48.926;8.964;2024-01-25T00:36:47;13.97;;;3.93;;
8317;SDS011;4196;48.926;8.964;2024-01-25T00:39:33;15.90;;;3.10;;
8317;SDS011;4196;48.926;8.964;2024-01-25T00:42:21;6.23;;;2.53;;
8317;SDS011;4196;48.926;8.964;2024-01-25T00:45:09;7.20;;;2.80;;
8317;SDS011;4196;48.926;8.964;2024-01-25T00:47:56;9.50;;;3.17;;
8317;SDS011;4196;48.926;8.964;2024-01-25T00:50:43;12.77;;;2.70;;
8317;SDS011;4196;48.926;8.964;2024-01-25T00:53:29;11.30;;;3.13;;
8317;SDS011;4196;48.926;8.964;2024-01-25T00:56:17;14.17;;;3.10;;
8317;SDS011;4196;48.926;8.964;2024-01-25T00:59:04;11.83;;;2.23;;
8317;SDS011;4196;48.926;8.964;2024-01-25T01:01:52;9.67;;;4.03;;
8317;SDS011;4196;48.926;8.964;2024-01-25T01:04:39;6.70;;;2.77;;
8317;SDS011;4196;48.926;8.964;2024-01-25T01:07:33;9.97;;;2.67;;
8317;SDS011;4196;48.926;8.964;2024-01-25T01:10:21;8.10;;;2.50;;
8317;SDS011;4196;48.926;8.964;2024-01-25T01:13:08;9.00;;;3.87;;
8317;SDS011;4196;48.926;8.964;2024-01-25T01:15:54;9.90;;;3.00;;
8317;SDS011;4196;48.926;8.964;2024-01-25T01:18:40;9.13;;;3.77;;
8317;SDS011;4196;48.926;8.964;2024-01-25T01:21:27;8.70;;;2.57;;
8317;SDS011;4196;48.926;8.964;2024-01-25T01:24:13;16.20;;;3.23;;
8317;SDS011;4196;48.926;8.964;2024-01-25T01:27:00;11.87;;;3.47;;
8317;SDS011;4196;48.926;8.964;2024-01-25T01:29:46;9.00;;;2.17;;
8317;SDS011;4196;48.926;8.964;2024-01-25T01:32:32;10.93;;;3.27;;
8317;SDS011;4196;48.926;8.964;2024-01-25T01:35:19;10.27;;;2.67;;
8317;SDS011;4196;48.926;8.964;2024-01-25T01:38:06;14.00;;;3.37;;
8317;SDS011;4196;48.926;8.964;2024-01-25T01:40:53;16.67;;;3.33;;
8317;SDS011;4196;48.926;8.964;2024-01-25T01:43:39;19.53;;;4.60;;
8317;SDS011;4196;48.926;8.964;2024-01-25T01:46:32;9.17;;;2.80;;
8317;SDS011;4196;48.926;8.964;2024-01-25T01:49:19;16.43;;;2.90;;
8317;SDS011;4196;48.926;8.964;2024-01-25T01:52:06;10.33;;;3.10;;
8317;SDS011;4196;48.926;8.964;2024-01-25T01:54:53;11.93;;;2.70;;
8317;SDS011;4196;48.926;8.964;2024-01-25T01:57:39;9.73;;;3.50;;
8317;SDS011;4196;48.926;8.964;2024-01-25T02:00:27;12.10;;;4.60;;
8317;SDS011;4196;48.926;8.964;2024-01-25T02:03:19;10.83;;;3.00;;
8317;SDS011;4196;48.926;8.964;2024-01-25T02:06:06;12.40;;;2.87;;
8317;SDS011;4196;48.926;8.964;2024-01-25T02:08:53;16.43;;;2.97;;
8317;SDS011;4196;48.926;8.964;2024-01-25T02:11:40;10.77;;;3.07;;
8317;SDS011;4196;48.926;8.964;2024-01-25T02:14:26;6.53;;;2.17;;
8317;SDS011;4196;48.926;8.964;2024-01-25T02:17:13;14.80;;;3.67;;
8317;SDS011;4196;48.926;8.964;2024-01-25T02:20:00;12.40;;;2.67;;
8317;SDS011;4196;48.926;8.964;2024-01-25T02:22:49;20.20;;;4.93;;
8317;SDS011;4196;48.926;8.964;2024-01-25T02:25:35;17.10;;;3.57;;
8317;SDS011;4196;48.926;8.964;2024-01-25T02:28:21;7.47;;;2.30;;
8317;SDS011;4196;48.926;8.964;2024-01-25T02:31:08;12.80;;;2.80;;
8317;SDS011;4196;48.926;8.964;2024-01-25T02:33:55;13.97;;;3.10;;
8317;SDS011;4196;48.926;8.964;2024-01-25T02:36:42;5.77;;;2.30;;
8317;SDS011;4196;48.926;8.964;2024-01-25T02:39:29;8.90;;;3.03;;
8317;SDS011;4196;48.926;8.964;2024-01-25T02:42:15;7.83;;;2.17;;
8317;SDS011;4196;48.926;8.964;2024-01-25T02:45:02;15.43;;;2.70;;
8317;SDS011;4196;48.926;8.964;2024-01-25T02:47:49;14.07;;;3.17;;
8317;SDS011;4196;48.926;8.964;2024-01-25T02:50:36;8.60;;;2.10;;
8317;SDS011;4196;48.926;8.964;2024-01-25T02:53:23;8.20;;;2.20;;
8317;SDS011;4196;48.926;8.964;2024-01-25T02:56:09;11.03;;;3.17;;
8317;SDS011;4196;48.926;8.964;2024-01-25T02:58:56;10.13;;;3.00;;
8317;SDS011;4196;48.926;8.964;2024-01-25T03:01:43;11.20;;;2.90;;
8317;SDS011;4196;48.926;8.964;2024-01-25T03:04:31;12.17;;;3.07;;
8317;SDS011;4196;48.926;8.964;2024-01-25T03:07:17;12.30;;;2.70;;
8317;SDS011;4196;48.926;8.964;2024-01-25T03:10:04;5.17;;;2.20;;
8317;SDS011;4196;48.926;8.964;2024-01-25T03:12:51;13.27;;;3.13;;
8317;SDS011;4196;48.926;8.964;2024-01-25T03:15:37;17.87;;;4.17;;
8317;SDS011;4196;48.926;8.964;2024-01-25T03:18:24;7.80;;;2.40;;
8317;SDS011;4196;48.926;8.964;2024-01-25T03:21:11;13.70;;;2.40;;
8317;SDS011;4196;48.926;8.964;2024-01-25T03:23:57;9.37;;;2.90;;
8317;SDS011;4196;48.926;8.964;2024-01-25T03:26:44;12.13;;;3.27;;
8317;SDS011;4196;48.926;8.964;2024-01-25T03:29:30;9.23;;;2.90;;
8317;SDS011;4196;48.926;8.964;2024-01-25T03:32:17;15.60;;;4.60;;
8317;SDS011;4196;48.926;8.964;2024-01-25T03:35:04;13.97;;;2.63;;
8317;SDS011;4196;48.926;8.964;2024-01-25T03:37:50;7.23;;;3.13;;
8317;SDS011;4196;48.926;8.964;2024-01-25T03:40:36;10.53;;;2.43;;
8317;SDS011;4196;48.926;8.964;2024-01-25T03:43:23;9.27;;;3.30;;
8317;SDS011;4196;48.926;8.964;2024-01-25T03:46:15;6.67;;;2.43;;
8317;SDS011;4196;48.926;8.964;2024-01-25T03:49:02;8.50;;;2.97;;
8317;SDS011;4196;48.926;8.964;2024-01-25T03:51:49;12.17;;;2.87;;
8317;SDS011;4196;48.926;8.964;2024-01-25T03:54:38;9.97;;;2.67;;
8317;SDS011;4196;48.926;8.964;2024-01-25T03:57:24;13.37;;;3.43;;
8317;SDS011;4196;48.926;8.964;2024-01-25T04:00:11;9.07;;;2.70;;
8317;SDS011;4196;48.926;8.964;2024-01-25T04:02:58;9.23;;;3.33;;
8317;SDS011;4196;48.926;8.964;2024-01-25T04:05:45;14.50;;;2.90;;
8317;SDS011;4196;48.926;8.964;2024-01-25T04:08:31;14.50;;;2.97;;
8317;SDS011;4196;48.926;8.964;2024-01-25T04:11:18;14.60;;;3.73;;
8317;SDS011;4196;48.926;8.964;2024-01-25T04:14:04;10.30;;;3.30;;
8317;SDS011;4196;48.926;8.964;2024-01-25T04:16:51;15.47;;;3.10;;
8317;SDS011;4196;48.926;8.964;2024-01-25T04:19:37;10.73;;;2.90;;
8317;SDS011;4196;48.926;8.964;2024-01-25T04:22:24;12.63;;;3.03;;
8317;SDS011;4196;48.926;8.964;2024-01-25T04:25:10;6.57;;;2.93;;
8317;SDS011;4196;48.926;8.964;2024-01-25T04:27:57;12.70;;;3.00;;
8317;SDS011;4196;48.926;8.964;2024-01-25T04:30:43;14.27;;;2.57;;
8317;SDS011;4196;48.926;8.964;2024-01-25T04:33:30;13.30;;;3.63;;
8317;SDS011;4196;48.926;8.964;2024-01-25T04:36:16;19.13;;;3.93;;
8317;SDS011;4196;48.926;8.964;2024-01-25T04:39:03;7.97;;;2.80;;
8317;SDS011;4196;48.926;8.964;2024-01-25T04:41:49;9.60;;;3.20;;
8317;SDS011;4196;48.926;8.964;2024-01-25T04:44:36;9.33;;;2.97;;
8317;SDS011;4196;48.926;8.964;2024-01-25T04:47:23;9.13;;;2.50;;
8317;SDS011;4196;48.926;8.964;2024-01-25T04:50:09;14.47;;;3.40;;
8317;SDS011;4196;48.926;8.964;2024-01-25T04:52:56;9.97;;;3.17;;
8317;SDS011;4196;48.926;8.964;2024-01-25T04:55:42;9.20;;;3.00;;
8317;SDS011;4196;48.926;8.964;2024-01-25T04:58:29;10.00;;;2.50;;
8317;SDS011;4196;48.926;8.964;2024-01-25T05:01:16;8.97;;;2.43;;
8317;SDS011;4196;48.926;8.964;2024-01-25T05:04:02;30.90;;;3.90;;
8317;SDS011;4196;48.926;8.964;2024-01-25T05:06:50;9.53;;;3.03;;
8317;SDS011;4196;48.926;8.964;2024-01-25T05:09:37;17.23;;;2.80;;
8317;SDS011;4196;48.926;8.964;2024-01-25T05:12:23;15.53;;;3.27;;
8317;SDS011;4196;48.926;8.964;2024-01-25T05:15:10;13.90;;;3.60;;
8317;SDS011;4196;48.926;8.964;2024-01-25T05:17:56;7.83;;;3.50;;
8317;SDS011;4196;48.926;8.964;2024-01-25T05:20:43;10.80;;;3.10;;
8317;SDS011;4196;48.926;8.964;2024-01-25T05:23:29;15.50;;;3.20;;
8317;SDS011;4196;48.926;8.964;2024-01-25T05:26:16;11.77;;;3.33;;
8317;SDS011;4196;48.926;8.964;2024-01-25T05:29:03;14.63;;;2.77;;
8317;SDS011;4196;48.926;8.964;2024-01-25T05:31:49;14.17;;;2.70;;
8317;SDS011;4196;48.926;8.964;2024-01-25T05:34:36;7.43;;;2.63;;
8317;SDS011;4196;48.926;8.964;2024-01-25T05:37:23;15.90;;;3.60;;
8317;SDS011;4196;48.926;8.964;2024-01-25T05:40:09;9.40;;;2.63;;
8317;SDS011;4196;48.926;8.964;2024-01-25T05:42:56;12.03;;;3.27;;
8317;SDS011;4196;48.926;8.964;2024-01-25T05:45:43;14.13;;;3.87;;
8317;SDS011;4196;48.926;8.964;2024-01-25T05:48:30;7.03;;;2.37;;
8317;SDS011;4196;48.926;8.964;2024-01-25T05:51:17;11.63;;;3.17;;
8317;SDS011;4196;48.926;8.964;2024-01-25T05:54:03;18.40;;;4.00;;
8317;SDS011;4196;48.926;8.964;2024-01-25T05:56:50;15.37;;;4.47;;
8317;SDS011;4196;48.926;8.964;2024-01-25T05:59:36;14.57;;;2.77;;
8317;SDS011;4196;48.926;8.964;2024-01-25T06:02:23;12.77;;;3.13;;
8317;SDS011;4196;48.926;8.964;2024-01-25T06:05:09;15.27;;;4.00;;
8317;SDS011;4196;48.926;8.964;2024-01-25T06:07:56;15.47;;;4.53;;
8317;SDS011;4196;48.926;8.964;2024-01-25T06:10:43;16.90;;;3.93;;
8317;SDS011;4196;48.926;8.964;2024-01-25T06:13:30;16.87;;;3.47;;
8317;SDS011;4196;48.926;8.964;2024-01-25T06:16:18;16.50;;;3.40;;
8317;SDS011;4196;48.926;8.964;2024-01-25T06:19:05;13.23;;;3.30;;
8317;SDS011;4196;48.926;8.964;2024-01-25T06:21:51;9.50;;;3.57;;
8317;SDS011;4196;48.926;8.964;2024-01-25T06:24:38;13.40;;;4.77;;
8317;SDS011;4196;48.926;8.964;2024-01-25T06:27:24;14.90;;;3.87;;
8317;SDS011;4196;48.926;8.964;2024-01-25T06:30:11;12.10;;;3.60;;
8317;SDS011;4196;48.926;8.964;2024-01-25T06:32:58;12.80;;;2.87;;
8317;SDS011;4196;48.926;8.964;2024-01-25T06:35:45;15.43;;;5.20;;
8317;SDS011;4196;48.926;8.964;2024-01-25T06:38:31;13.73;;;3.63;;
8317;SDS011;4196;48.926;8.964;2024-01-25T06:41:17;9.77;;;3.33;;
8317;SDS011;4196;48.926;8.964;2024-01-25T06:44:03;12.60;;;3.57;;
8317;SDS011;4196;48.926;8.964;2024-01-25T06:46:50;10.97;;;4.43;;
8317;SDS011;4196;48.926;8.964;2024-01-25T06:49:37;14.87;;;4.53;;
8317;SDS011;4196;48.926;8.964;2024-01-25T06:52:23;16.80;;;5.63;;
8317;SDS011;4196;48.926;8.964;2024-01-25T06:55:11;15.20;;;3.17;;
8317;SDS011;4196;48.926;8.964;2024-01-25T06:57:58;17.87;;;5.13;;
8317;SDS011;4196;48.926;8.964;2024-01-25T07:00:44;15.50;;;4.77;;
8317;SDS011;4196;48.926;8.964;2024-01-25T07:03:33;13.50;;;5.67;;
8317;SDS011;4196;48.926;8.964;2024-01-25T07:06:20;13.53;;;5.93;;
8317;SDS011;4196;48.926;8.964;2024-01-25T07:09:08;11.47;;;4.73;;
8317;SDS011;4196;48.926;8.964;2024-01-25T07:11:54;17.17;;;6.20;;
8317;SDS011;4196;48.926;8.964;2024-01-25T07:14:41;21.80;;;5.47;;
8317;SDS011;4196;48.926;8.964;2024-01-25T07:17:27;13.23;;;4.73;;
8317;SDS011;4196;48.926;8.964;2024-01-25T07:20:14;18.30;;;4.03;;
8317;SDS011;4196;48.926;8.964;2024-01-25T07:23:01;19.73;;;5.17;;
8317;SDS011;4196;48.926;8.964;2024-01-25T07:25:47;11.83;;;3.37;;
8317;SDS011;4196;48.926;8.964;2024-01-25T07:28:34;10.20;;;3.27;;
8317;SDS011;4196;48.926;8.964;2024-01-25T07:31:20;11.40;;;3.83;;
8317;SDS011;4196;48.926;8.964;2024-01-25T07:34:07;15.33;;;3.53;;
8317;SDS011;4196;48.926;8.964;2024-01-25T07:36:53;11.80;;;3.73;;
8317;SDS011;4196;48.926;8.964;2024-01-25T07:39:40;12.33;;;3.20;;
8317;SDS011;4196;48.926;8.964;2024-01-25T07:42:27;13.27;;;3.17;;
8317;SDS011;4196;48.926;8.964;2024-01-25T07:45:13;27.73;;;6.17;;
8317;SDS011;4196;48.926;8.964;2024-01-25T07:48:00;14.00;;;3.80;;
8317;SDS011;4196;48.926;8.964;2024-01-25T07:51:00;16.97;;;5.27;;
8317;SDS011;4196;48.926;8.964;2024-01-25T07:53:46;17.00;;;5.10;;
8317;SDS011;4196;48.926;8.964;2024-01-25T07:56:33;14.30;;;4.20;;
8317;SDS011;4196;48.926;8.964;2024-01-25T07:59:20;19.50;;;4.73;;
8317;SDS011;4196;48.926;8.964;2024-01-25T08:02:06;16.50;;;5.83;;
8317;SDS011;4196;48.926;8.964;2024-01-25T08:04:53;15.93;;;3.97;;
8317;SDS011;4196;48.926;8.964;2024-01-25T08:07:40;11.93;;;4.10;;
8317;SDS011;4196;48.926;8.964;2024-01-25T08:10:27;10.53;;;4.30;;
8317;SDS011;4196;48.926;8.964;2024-01-25T08:13:13;26.77;;;5.10;;
8317;SDS011;4196;48.926;8.964;2024-01-25T08:16:00;27.53;;;6.07;;
8317;SDS011;4196;48.926;8.964;2024-01-25T08:18:47;13.17;;;4.13;;
8317;SDS011;4196;48.926;8.964;2024-01-25T08:21:34;12.63;;;4.17;;
8317;SDS011;4196;48.926;8.964;2024-01-25T08:24:22;10.87;;;3.50;;
8317;SDS011;4196;48.926;8.964;2024-01-25T08:27:08;12.80;;;3.50;;
8317;SDS011;4196;48.926;8.964;2024-01-25T08:29:57;16.20;;;3.90;;
8317;SDS011;4196;48.926;8.964;2024-01-25T08:32:44;9.13;;;3.07;;
8317;SDS011;4196;48.926;8.964;2024-01-25T08:35:30;14.47;;;4.80;;
8317;SDS011;4196;48.926;8.964;2024-01-25T08:38:17;12.03;;;3.17;;
8317;SDS011;4196;48.926;8.964;2024-01-25T08:41:04;15.20;;;4.53;;
8317;SDS011;4196;48.926;8.964;2024-01-25T08:43:50;18.63;;;5.33;;
8317;SDS011;4196;48.926;8.964;2024-01-25T08:46:37;15.07;;;5.07;;
8317;SDS011;4196;48.926;8.964;2024-01-25T08:49:24;11.67;;;4.43;;
8317;SDS011;4196;48.926;8.964;2024-01-25T08:52:11;24.87;;;7.93;;
8317;SDS011;4196;48.926;8.964;2024-01-25T08:54:57;8.10;;;3.73;;
8317;SDS011;4196;48.926;8.964;2024-01-25T08:57:44;10.47;;;2.97;;
8317;SDS011;4196;48.926;8.964;2024-01-25T09:00:30;12.33;;;3.77;;
8317;SDS011;4196;48.926;8.964;2024-01-25T09:03:17;14.43;;;3.33;;
8317;SDS011;4196;48.926;8.964;2024-01-25T09:06:03;24.33;;;5.57;;
8317;SDS011;4196;48.926;8.964;2024-01-25T09:08:52;11.10;;;3.30;;
8317;SDS011;4196;48.926;8.964;2024-01-25T09:11:39;9.53;;;3.60;;
8317;SDS011;4196;48.926;8.964;2024-01-25T09:14:26;12.37;;;3.53;;
8317;SDS011;4196;48.926;8.964;2024-01-25T09:17:12;14.90;;;4.67;;
8317;SDS011;4196;48.926;8.964;2024-01-25T09:20:00;21.00;;;4.10;;
8317;SDS011;4196;48.926;8.964;2024-01-25T09:22:47;7.10;;;2.23;;
8317;SDS011;4196;48.926;8.964;2024-01-25T09:25:33;13.47;;;3.20;;
8317;SDS011;4196;48.926;8.964;2024-01-25T09:28:20;16.17;;;3.07;;
8317;SDS011;4196;48.926;8.964;2024-01-25T09:31:07;10.17;;;4.17;;
8317;SDS011;4196;48.926;8.964;2024-01-25T09:33:53;15.20;;;3.50;;
8317;SDS011;4196;48.926;8.964;2024-01-25T09:36:40;10.93;;;3.40;;
8317;SDS011;4196;48.926;8.964;2024-01-25T09:39:28;21.27;;;4.37;;
8317;SDS011;4196;48.926;8.964;2024-01-25T09:42:15;14.77;;;3.07;;
8317;SDS011;4196;48.926;8.964;2024-01-25T09:45:02;33.27;;;5.93;;
8317;SDS011;4196;48.926;8.964;2024-01-25T09:47:52;12.90;;;3.20;;
8317;SDS011;4196;48.926;8.964;2024-01-25T09:50:39;8.33;;;3.40;;
8317;SDS011;4196;48.926;8.964;2024-01-25T09:53:26;19.37;;;5.00;;
8317;SDS011;4196;48.926;8.964;2024-01-25T09:56:13;10.17;;;2.83;;
8317;SDS011;4196;48.926;8.964;2024-01-25T09:59:03;13.23;;;2.70;;
8317;SDS011;4196;48.926;8.964;2024-01-25T10:01:50;7.80;;;3.00;;
8317;SDS011;4196;48.926;8.964;2024-01-25T10:04:37;11.10;;;3.23;;
8317;SDS011;4196;48.926;8.964;2024-01-25T10:10:31;11.70;;;3.27;;
8317;SDS011;4196;48.926;8.964;2024-01-25T10:13:19;11.43;;;3.40;;
8317;SDS011;4196;48.926;8.964;2024-01-25T10:16:06;14.33;;;2.97;;
8317;SDS011;4196;48.926;8.964;2024-01-25T10:18:52;10.70;;;2.80;;
8317;SDS011;4196;48.926;8.964;2024-01-25T10:21:40;8.03;;;2.60;;
8317;SDS011;4196;48.926;8.964;2024-01-25T10:24:29;11.33;;;3.20;;
8317;SDS011;4196;48.926;8.964;2024-01-25T10:27:16;10.40;;;2.53;;
8317;SDS011;4196;48.926;8.964;2024-01-25T10:30:05;9.90;;;3.23;;
8317;SDS011;4196;48.926;8.964;2024-01-25T10:32:53;8.37;;;2.27;;
8317;SDS011;4196;48.926;8.964;2024-01-25T10:35:41;9.23;;;2.47;;
8317;SDS011;4196;48.926;8.964;2024-01-25T10:38:32;15.80;;;3.93;;
8317;SDS011;4196;48.926;8.964;2024-01-25T10:41:21;11.23;;;2.40;;
8317;SDS011;4196;48.926;8.964;2024-01-25T10:44:10;12.03;;;2.73;;
8317;SDS011;4196;48.926;8.964;2024-01-25T10:46:57;12.70;;;2.87;;
8317;SDS011;4196;48.926;8.964;2024-01-25T10:49:46;10.97;;;2.87;;
8317;SDS011;4196;48.926;8.964;2024-01-25T10:52:33;9.10;;;2.37;;
8317;SDS011;4196;48.926;8.964;2024-01-25T10:55:20;10.33;;;3.40;;
8317;SDS011;4196;48.926;8.964;2024-01-25T10:58:07;13.47;;;2.70;;
8317;SDS011;4196;48.926;8.964;2024-01-25T11:00:56;5.77;;;2.27;;
8317;SDS011;4196;48.926;8.964;2024-01-25T11:03:45;16.07;;;3.47;;
8317;SDS011;4196;48.926;8.964;2024-01-25T11:06:35;9.50;;;2.73;;
8317;SDS011;4196;48.926;8.964;2024-01-25T11:09:22;7.57;;;2.43;;
8317;SDS011;4196;48.926;8.964;2024-01-25T11:12:13;11.33;;;2.37;;
8317;SDS011;4196;48.926;8.964;2024-01-25T11:15:06;8.17;;;3.20;;
8317;SDS011;4196;48.926;8.964;2024-01-25T11:17:53;7.90;;;2.90;;
8317;SDS011;4196;48.926;8.964;2024-01-25T11:20:40;9.10;;;2.30;;
8317;SDS011;4196;48.926;8.964;2024-01-25T11:23:31;7.23;;;2.93;;
8317;SDS011;4196;48.926;8.964;2024-01-25T11:26:18;10.07;;;2.23;;
8317;SDS011;4196;48.926;8.964;2024-01-25T11:29:04;6.93;;;2.37;;
8317;SDS011;4196;48.926;8.964;2024-01-25T11:31:51;7.53;;;2.20;;
8317;SDS011;4196;48.926;8.964;2024-01-25T11:34:39;18.33;;;3.50;;
8317;SDS011;4196;48.926;8.964;2024-01-25T11:37:25;4.43;;;2.30;;
8317;SDS011;4196;48.926;8.964;2024-01-25T11:40:13;8.63;;;3.27;;
8317;SDS011;4196;48.926;8.964;2024-01-25T11:43:00;10.03;;;2.90;;
8317;SDS011;4196;48.926;8.964;2024-01-25T11:45:48;6.07;;;2.10;;
8317;SDS011;4196;48.926;8.964;2024-01-25T11:48:38;7.80;;;2.20;;
8317;SDS011;4196;48.926;8.964;2024-01-25T11:51:26;9.40;;;2.87;;
8317;SDS011;4196;48.926;8.964;2024-01-25T11:54:12;8.37;;;2.97;;
8317;SDS011;4196;48.926;8.964;2024-01-25T11:56:58;10.77;;;3.80;;
8317;SDS011;4196;48.926;8.964;2024-01-25T11:59:45;7.77;;;2.90;;
8317;SDS011;4196;48.926;8.964;2024-01-25T12:02:32;4.60;;;2.03;;
8317;SDS011;4196;48.926;8.964;2024-01-25T12:05:20;5.70;;;2.70;;
8317;SDS011;4196;48.926;8.964;2024-01-25T12:08:12;7.23;;;2.20;;
8317;SDS011;4196;48.926;8.964;2024-01-25T12:11:06;10.33;;;2.30;;
8317;SDS011;4196;48.926;8.964;2024-01-25T12:13:54;7.90;;;2.43;;
8317;SDS011;4196;48.926;8.964;2024-01-25T12:16:40;9.73;;;3.43;;
8317;SDS011;4196;48.926;8.964;2024-01-25T12:19:28;15.23;;;3.03;;
8317;SDS011;4196;48.926;8.964;2024-01-25T12:22:19;5.50;;;2.30;;
8317;SDS011;4196;48.926;8.964;2024-01-25T12:25:10;8.93;;;3.37;;
8317;SDS011;4196;48.926;8.964;2024-01-25T12:27:56;8.23;;;2.03;;
8317;SDS011;4196;48.926;8.964;2024-01-25T12:30:43;11.87;;;2.27;;
8317;SDS011;4196;48.926;8.964;2024-01-25T12:33:30;8.63;;;2.67;;
8317;SDS011;4196;48.926;8.964;2024-01-25T12:36:17;8.47;;;3.73;;
8317;SDS011;4196;48.926;8.964;2024-01-25T12:39:03;8.53;;;1.93;;
8317;SDS011;4196;48.926;8.964;2024-01-25T12:41:50;8.57;;;1.90;;
8317;SDS011;4196;48.926;8.964;2024-01-25T12:44:37;10.40;;;2.77;;
8317;SDS011;4196;48.926;8.964;2024-01-25T12:47:24;7.17;;;1.90;;
8317;SDS011;4196;48.926;8.964;2024-01-25T12:50:11;9.67;;;2.53;;
8317;SDS011;4196;48.926;8.964;2024-01-25T12:52:57;10.13;;;2.23;;
8317;SDS011;4196;48.926;8.964;2024-01-25T12:55:45;7.17;;;2.03;;
8317;SDS011;4196;48.926;8.964;2024-01-25T12:58:31;4.93;;;1.93;;
8317;SDS011;4196;48.926;8.964;2024-01-25T13:01:18;7.27;;;1.83;;
8317;SDS011;4196;48.926;8.964;2024-01-25T13:04:06;4.80;;;1.77;;
8317;SDS011;4196;48.926;8.964;2024-01-25T13:06:53;9.90;;;2.70;;
8317;SDS011;4196;48.926;8.964;2024-01-25T13:09:41;5.63;;;1.83;;
8317;SDS011;4196;48.926;8.964;2024-01-25T13:12:28;9.83;;;4.17;;
8317;SDS011;4196;48.926;8.964;2024-01-25T13:15:14;9.53;;;3.30;;
8317;SDS011;4196;48.926;8.964;2024-01-25T13:18:01;6.17;;;1.80;;
8317;SDS011;4196;48.926;8.964;2024-01-25T13:20:48;7.10;;;1.73;;
8317;SDS011;4196;48.926;8.964;2024-01-25T13:23:34;10.37;;;2.30;;
8317;SDS011;4196;48.926;8.964;2024-01-25T13:26:21;9.60;;;2.30;;
8317;SDS011;4196;48.926;8.964;2024-01-25T13:29:07;7.10;;;1.87;;
8317;SDS011;4196;48.926;8.964;2024-01-25T13:31:58;5.07;;;2.13;;
8317;SDS011;4196;48.926;8.964;2024-01-25T13:34:45;4.67;;;2.00;;
8317;SDS011;4196;48.926;8.964;2024-01-25T13:37:31;7.33;;;1.80;;
8317;SDS011;4196;48.926;8.964;2024-01-25T13:40:17;8.53;;;2.97;;
8317;SDS011;4196;48.926;8.964;2024-01-25T13:43:06;5.60;;;1.73;;
8317;SDS011;4196;48.926;8.964;2024-01-25T13:45:53;5.97;;;1.83;;
8317;SDS011;4196;48.926;8.964;2024-01-25T13:48:41;6.50;;;2.17;;
8317;SDS011;4196;48.926;8.964;2024-01-25T13:51:27;9.63;;;2.90;;
8317;SDS011;4196;48.926;8.964;2024-01-25T13:54:14;9.27;;;2.57;;
8317;SDS011;4196;48.926;8.964;2024-01-25T13:57:00;5.87;;;2.13;;
8317;SDS011;4196;48.926;8.964;2024-01-25T13:59:46;11.43;;;2.40;;
8317;SDS011;4196;48.926;8.964;2024-01-25T14:02:33;4.53;;;1.80;;
8317;SDS011;4196;48.926;8.964;2024-01-25T14:05:20;11.07;;;3.10;;
8317;SDS011;4196;48.926;8.964;2024-01-25T14:08:06;8.97;;;2.43;;
8317;SDS011;4196;48.926;8.964;2024-01-25T14:10:53;6.17;;;2.30;;
8317;SDS011;4196;48.926;8.964;2024-01-25T14:13:40;4.20;;;2.07;;
8317;SDS011;4196;48.926;8.964;2024-01-25T14:16:26;5.00;;;2.80;;
8317;SDS011;4196;48.926;8.964;2024-01-25T14:19:13;4.27;;;1.70;;
8317;SDS011;4196;48.926;8.964;2024-01-25T14:22:00;7.50;;;2.33;;
8317;SDS011;4196;48.926;8.964;2024-01-25T14:25:06;10.63;;;1.83;;
8317;SDS011;4196;48.926;8.964;2024-01-25T14:27:53;6.23;;;1.57;;
8317;SDS011;4196;48.926;8.964;2024-01-25T14:30:43;8.60;;;2.00;;
8317;SDS011;4196;48.926;8.964;2024-01-25T14:33:32;8.87;;;2.67;;
8317;SDS011;4196;48.926;8.964;2024-01-25T14:36:18;5.37;;;2.13;;
8317;SDS011;4196;48.926;8.964;2024-01-25T14:39:05;3.17;;;1.90;;
8317;SDS011;4196;48.926;8.964;2024-01-25T14:41:54;8.10;;;2.20;;
8317;SDS011;4196;48.926;8.964;2024-01-25T14:44:43;2.97;;;1.60;;
8317;SDS011;4196;48.926;8.964;2024-01-25T14:47:30;8.60;;;2.10;;
8317;SDS011;4196;48.926;8.964;2024-01-25T14:50:17;7.93;;;1.90;;
8317;SDS011;4196;48.926;8.964;2024-01-25T14:53:04;4.03;;;2.00;;
8317;SDS011;4196;48.926;8.964;2024-01-25T14:55:50;3.30;;;1.70;;
8317;SDS011;4196;48.926;8.964;2024-01-25T14:58:37;2.70;;;1.53;;
8317;SDS011;4196;48.926;8.964;2024-01-25T15:01:24;4.50;;;1.83;;
8317;SDS011;4196;48.926;8.964;2024-01-25T15:04:15;5.93;;;2.40;;
8317;SDS011;4196;48.926;8.964;2024-01-25T15:07:05;5.27;;;1.93;;
8317;SDS011;4196;48.926;8.964;2024-01-25T15:09:52;9.93;;;4.43;;
8317;SDS011;4196;48.926;8.964;2024-01-25T15:12:38;8.97;;;3.70;;
8317;SDS011;4196;48.926;8.964;2024-01-25T15:15:26;14.23;;;5.83;;
8317;SDS011;4196;48.926;8.964;2024-01-25T15:18:14;16.80;;;6.90;;
8317;SDS011;4196;48.926;8.964;2024-01-25T15:21:01;8.53;;;4.00;;
8317;SDS011;4196;48.926;8.964;2024-01-25T15:23:47;8.20;;;2.93;;
8317;SDS011;4196;48.926;8.964;2024-01-25T15:26:34;25.83;;;10.20;;
8317;SDS011;4196;48.926;8.964;2024-01-25T15:29:22;20.77;;;9.70;;
8317;SDS011;4196;48.926;8.964;2024-01-25T15:32:08;15.73;;;8.43;;
8317;SDS011;4196;48.926;8.964;2024-01-25T15:34:55;13.97;;;7.40;;
8317;SDS011;4196;48.926;8.964;2024-01-25T15:37:41;11.30;;;5.43;;
8317;SDS011;4196;48.926;8.964;2024-01-25T15:40:28;10.17;;;4.57;;
8317;SDS011;4196;48.926;8.964;2024-01-25T15:43:15;8.80;;;7.23;;
8317;SDS011;4196;48.926;8.964;2024-01-25T15:46:02;13.03;;;7.40;;
8317;SDS011;4196;48.926;8.964;2024-01-25T15:48:48;5.73;;;3.80;;
8317;SDS011;4196;48.926;8.964;2024-01-25T15:51:37;8.63;;;1.90;;
8317;SDS011;4196;48.926;8.964;2024-01-25T15:54:23;6.90;;;3.70;;
8317;SDS011;4196;48.926;8.964;2024-01-25T15:57:10;5.90;;;2.30;;
8317;SDS011;4196;48.926;8.964;2024-01-25T15:59:57;3.33;;;1.80;;
8317;SDS011;4196;48.926;8.964;2024-01-25T16:02:43;5.93;;;2.47;;
8317;SDS011;4196;48.926;8.964;2024-01-25T16:05:30;6.77;;;2.63;;
8317;SDS011;4196;48.926;8.964;2024-01-25T16:08:17;3.90;;;1.80;;
8317;SDS011;4196;48.926;8.964;2024-01-25T16:11:03;5.87;;;2.53;;
8317;SDS011;4196;48.926;8.964;2024-01-25T16:13:50;3.80;;;1.90;;
8317;SDS011;4196;48.926;8.964;2024-01-25T16:16:36;11.97;;;3.60;;
8317;SDS011;4196;48.926;8.964;2024-01-25T16:19:23;6.53;;;1.90;;
8317;SDS011;4196;48.926;8.964;2024-01-25T16:22:09;8.50;;;3.13;;
8317;SDS011;4196;48.926;8.964;2024-01-25T16:24:56;13.97;;;4.33;;
8317;SDS011;4196;48.926;8.964;2024-01-25T16:27:43;11.17;;;4.00;;
8317;SDS011;4196;48.926;8.964;2024-01-25T16:30:29;5.40;;;2.47;;
8317;SDS011;4196;48.926;8.964;2024-01-25T16:33:16;6.90;;;2.37;;
8317;SDS011;4196;48.926;8.964;2024-01-25T16:36:02;11.57;;;3.17;;
8317;SDS011;4196;48.926;8.964;2024-01-25T16:38:49;9.87;;;3.73;;
8317;SDS011;4196;48.926;8.964;2024-01-25T16:41:36;10.67;;;5.43;;
8317;SDS011;4196;48.926;8.964;2024-01-25T16:44:22;10.33;;;3.77;;
8317;SDS011;4196;48.926;8.964;2024-01-25T16:47:09;12.20;;;4.07;;
8317;SDS011;4196;48.926;8.964;2024-01-25T16:49:56;6.60;;;3.27;;
8317;SDS011;4196;48.926;8.964;2024-01-25T16:52:42;12.37;;;6.23;;
8317;SDS011;4196;48.926;8.964;2024-01-25T16:55:29;12.33;;;7.20;;
8317;SDS011;4196;48.926;8.964;2024-01-25T16:58:16;19.17;;;8.27;;
8317;SDS011;4196;48.926;8.964;2024-01-25T17:01:02;13.80;;;6.50;;
8317;SDS011;4196;48.926;8.964;2024-01-25T17:03:49;19.53;;;9.53;;
8317;SDS011;4196;48.926;8.964;2024-01-25T17:06:36;16.73;;;7.07;;
8317;SDS011;4196;48.926;8.964;2024-01-25T17:09:27;15.37;;;7.00;;
8317;SDS011;4196;48.926;8.964;2024-01-25T17:12:13;16.27;;;5.80;;